Crescent City, Florida
Current Conditions -  °F | °C
As of 7:55 AM on Friday 31 Oct 2014 (Local Time) from KDED Reporting Station
Scattered Clouds Scattered Clouds  
Wind Chill: 63°   Ceiling: Unl
Heat Index: 63°   Visibility: 10mi
Dew Point: 57°   Wind: 0mph
Humidity: 82%   Direction: NA
Pressure: 29.87"   Gusts: NA
Location:  29.43°N, 81.51°W
Report Text: KDED 311155Z AUTO 00000KT 10SM FEW023 SCT040 SCT047 17/14 A2987 RMK AO1
Loading
Personal Weather Stations






























Interactive Weather Map
Tropical Storm Tracking
New forecast layout! Learn more

10-Day Weather Forecast

Advertisements
Track Severe Weather on mobile